Deatsville, Kentucky
Current Conditions -  °F | °C
As of 4:56 AM on Saturday 29 Nov 2014 (Local Time) from KSDF Reporting Station
Broken Clouds Broken Clouds  
Wind Chill: 31°   Ceiling: 25000
Heat Index: 38°   Visibility: 10mi
Dew Point: 23°   Wind: 9mph
Humidity: 55%   Direction: 160°SSE
Pressure: 30.03"   Gusts: NA
Location:  37.9212°N, 85.4864°W
Report Text: KSDF 290956Z 16008KT 10SM BKN250 03/M05 A3003 RMK AO2 SLP171 T00331050
Loading
Personal Weather Stations






























Interactive Weather Map New forecast layout! Learn more

10-Day Weather Forecast

Advertisements
Track Severe Weather on mobile